createdAt,value
2022-08-21T00:02:16.142Z,76.77
2022-08-21T00:04:55.864Z,77.27
2022-08-21T00:07:26.993Z,77.13
2022-08-21T00:09:55.374Z,77.90
2022-08-21T00:12:23.709Z,78.29
2022-08-21T00:18:28.477Z,78.21
2022-08-21T00:20:56.574Z,78.43
2022-08-21T00:23:27.961Z,78.35
2022-08-21T00:25:58.103Z,76.22
2022-08-21T00:28:26.510Z,76.12
2022-08-21T00:30:57.592Z,78.12
2022-08-21T00:33:28.300Z,79.01
2022-08-21T00:35:56.507Z,80.16
2022-08-21T00:38:24.783Z,80.75
2022-08-21T00:40:55.547Z,81.37
2022-08-21T00:43:32.102Z,81.98
2022-08-21T00:46:03.887Z,82.85
2022-08-21T00:48:34.751Z,83.29
2022-08-21T00:51:07.490Z,83.46
2022-08-21T00:53:38.126Z,83.92
2022-08-21T00:56:11.791Z,85.32
2022-08-21T00:58:44.599Z,83.24
2022-08-21T01:01:12.969Z,82.96
2022-08-21T01:03:45.403Z,82.41
2022-08-21T01:06:16.116Z,81.43
2022-08-21T01:08:47.971Z,81.60
2022-08-21T01:11:16.951Z,82.41
2022-08-21T01:13:47.574Z,82.36
2022-08-21T01:16:19.125Z,82.91
2022-08-21T01:18:51.721Z,83.25
2022-08-21T01:21:28.135Z,83.55
2022-08-21T01:23:58.738Z,84.24
2022-08-21T01:26:33.756Z,85.53
2022-08-21T01:29:07.621Z,85.91
2022-08-21T01:31:36.001Z,86.14
2022-08-21T01:34:04.345Z,86.54
2022-08-21T01:36:37.004Z,86.56
2022-08-21T01:39:06.808Z,87.41
2022-08-21T01:41:34.910Z,87.97
2022-08-21T01:44:02.964Z,88.48
2022-08-21T01:46:31.167Z,88.60
2022-08-21T01:48:59.510Z,88.96
2022-08-21T01:51:29.840Z,89.32
2022-08-21T01:53:59.513Z,89.98
2022-08-21T01:56:28.775Z,91.24
2022-08-21T01:58:57.450Z,92.26
2022-08-21T02:01:25.600Z,92.73
2022-08-21T02:03:54.020Z,93.31
2022-08-21T02:06:24.430Z,93.48
2022-08-21T02:08:52.973Z,93.97
2022-08-21T02:11:24.910Z,94.56
2022-08-21T02:13:52.992Z,95.55
2022-08-21T02:16:21.485Z,95.89
2022-08-21T02:18:49.633Z,96.09
2022-08-21T02:21:17.922Z,96.11
2022-08-21T02:23:46.242Z,96.29
2022-08-21T02:26:16.802Z,96.72
2022-08-21T02:28:48.225Z,97.52
2022-08-21T02:31:16.861Z,97.60
2022-08-21T02:33:45.135Z,97.60
2022-08-21T02:36:14.033Z,96.95
2022-08-21T02:38:44.231Z,97.35
2022-08-21T02:41:17.104Z,97.76
2022-08-21T02:43:49.271Z,97.63
2022-08-21T02:46:19.888Z,97.75
2022-08-21T02:48:50.390Z,98.19
2022-08-21T02:51:20.836Z,98.14
2022-08-21T02:53:50.274Z,98.31
2022-08-21T02:56:20.425Z,98.53
2022-08-21T02:58:53.068Z,98.53
2022-08-21T03:01:23.238Z,98.47
2022-08-21T03:03:51.978Z,98.06
2022-08-21T03:06:22.828Z,98.48
2022-08-21T03:08:51.926Z,98.00
2022-08-21T03:11:21.650Z,98.22
2022-08-21T03:13:51.533Z,98.76
2022-08-21T03:16:20.504Z,98.66
2022-08-21T03:18:48.505Z,99.73
2022-08-21T03:21:17.105Z,98.96
2022-08-21T03:23:45.050Z,98.92
2022-08-21T03:26:13.405Z,98.92
2022-08-21T03:28:42.132Z,99.16
2022-08-21T03:31:11.632Z,99.02
2022-08-21T03:33:42.405Z,99.33
2022-08-21T03:36:11.450Z,99.51
2022-08-21T03:38:39.843Z,99.91
2022-08-21T03:41:09.370Z,100.00
2022-08-21T03:43:39.450Z,99.49
2022-08-21T03:46:08.233Z,98.87
2022-08-21T03:48:39.550Z,98.38
2022-08-21T03:51:08.580Z,98.57
2022-08-21T03:53:37.360Z,98.93
2022-08-21T03:56:07.463Z,99.13
2022-08-21T03:58:35.626Z,99.25
2022-08-21T04:01:07.372Z,99.63
2022-08-21T04:03:38.339Z,98.37
2022-08-21T04:06:07.704Z,98.28
2022-08-21T04:08:35.972Z,97.96
2022-08-21T04:11:04.419Z,98.17
2022-08-21T04:13:32.556Z,97.00
2022-08-21T04:16:00.781Z,96.14
2022-08-21T04:18:29.149Z,96.78
2022-08-21T04:21:00.588Z,96.87
2022-08-21T04:23:30.207Z,96.89
2022-08-21T04:25:59.270Z,98.05
2022-08-21T04:28:30.446Z,97.73
2022-08-21T04:31:01.650Z,98.04
2022-08-21T04:33:33.008Z,98.14
2022-08-21T04:36:03.445Z,97.22
2022-08-21T04:38:37.596Z,97.67
2022-08-21T04:41:06.489Z,97.14
2022-08-21T04:43:37.167Z,97.87
2022-08-21T04:46:05.444Z,97.87
2022-08-21T04:48:33.914Z,98.08
2022-08-21T04:51:11.840Z,98.15
2022-08-21T04:53:43.525Z,98.51
2022-08-21T04:56:16.308Z,98.14
2022-08-21T04:58:45.044Z,96.28
2022-08-21T05:01:17.552Z,94.41
2022-08-21T05:03:46.732Z,96.40
2022-08-21T05:06:17.982Z,98.64
2022-08-21T05:08:49.545Z,98.71
2022-08-21T05:11:21.204Z,98.53
2022-08-21T05:13:49.300Z,97.81
2022-08-21T05:19:27.711Z,96.03
2022-08-21T05:21:56.202Z,95.46
2022-08-21T05:24:28.984Z,95.77
2022-08-21T05:26:57.320Z,95.51
2022-08-21T05:29:25.436Z,93.27
2022-08-21T05:31:54.288Z,91.10
2022-08-21T05:34:27.331Z,87.87
2022-08-21T05:36:55.682Z,87.34
2022-08-21T05:39:23.682Z,83.93
2022-08-21T05:41:51.798Z,81.59
2022-08-21T05:44:22.465Z,80.11
2022-08-21T05:46:50.635Z,78.29
2022-08-21T05:49:19.117Z,77.49
2022-08-21T05:51:50.710Z,76.99
2022-08-21T05:54:18.772Z,76.43
2022-08-21T05:56:48.987Z,76.09
2022-08-21T05:59:17.276Z,74.67
2022-08-21T06:01:46.277Z,73.65
2022-08-21T06:04:15.094Z,72.90
2022-08-21T06:06:43.189Z,71.85
2022-08-21T06:09:12.574Z,71.81
2022-08-21T06:11:41.023Z,71.53
2022-08-21T06:14:08.988Z,70.05
2022-08-21T06:16:37.251Z,70.31
2022-08-21T06:19:05.329Z,70.84
2022-08-21T06:21:33.434Z,70.20
2022-08-21T06:24:01.608Z,69.36
2022-08-21T06:26:31.119Z,67.33
2022-08-21T06:28:59.506Z,64.08
2022-08-21T06:31:29.291Z,60.51
2022-08-21T06:33:57.559Z,57.37
2022-08-21T06:36:28.344Z,54.41
2022-08-21T06:38:57.099Z,51.96
2022-08-21T06:41:27.117Z,49.54
2022-08-21T06:43:58.153Z,49.13
2022-08-21T06:46:27.984Z,48.79
2022-08-21T06:48:59.068Z,47.83
2022-08-21T06:51:28.416Z,43.33
2022-08-21T06:53:57.024Z,43.16
2022-08-21T06:56:27.640Z,43.39
2022-08-21T06:58:57.200Z,43.65
2022-08-21T07:01:27.510Z,41.67
2022-08-21T07:03:55.702Z,40.50
2022-08-21T07:06:26.990Z,41.69
2022-08-21T07:08:55.436Z,41.09
2022-08-21T07:11:27.487Z,41.17
2022-08-21T07:13:57.619Z,41.02
2022-08-21T07:16:25.918Z,40.07
2022-08-21T07:18:56.332Z,40.11
2022-08-21T07:21:26.221Z,39.13
2022-08-21T07:23:56.974Z,38.14
2022-08-21T07:26:26.833Z,36.69
2022-08-21T07:28:58.688Z,35.23
2022-08-21T07:31:27.733Z,35.09
2022-08-21T07:33:56.499Z,33.26
2022-08-21T07:36:24.867Z,34.55
2022-08-21T07:38:53.211Z,33.41
2022-08-21T07:41:24.696Z,32.48
2022-08-21T07:43:53.136Z,33.09
2022-08-21T07:46:22.654Z,33.19
2022-08-21T07:48:50.956Z,32.12
2022-08-21T07:51:25.915Z,33.11
2022-08-21T07:53:55.070Z,33.56
2022-08-21T07:56:23.355Z,34.00
2022-08-21T07:58:51.571Z,32.08
2022-08-21T08:01:20.391Z,30.84
2022-08-21T08:03:49.868Z,30.44
2022-08-21T08:06:20.611Z,30.95
2022-08-21T08:08:48.932Z,31.97
2022-08-21T08:11:17.059Z,29.96
2022-08-21T08:13:47.678Z,33.26
2022-08-21T08:16:16.398Z,32.41
2022-08-21T08:18:49.225Z,33.08
2022-08-21T08:21:17.639Z,32.58
2022-08-21T08:23:46.108Z,31.32
2022-08-21T08:26:14.742Z,31.40
2022-08-21T08:28:42.733Z,31.42
2022-08-21T08:31:13.078Z,30.00
2022-08-21T08:33:43.779Z,30.90
2022-08-21T08:36:19.962Z,30.82
2022-08-21T08:38:49.330Z,29.77
2022-08-21T08:41:23.731Z,31.22
2022-08-21T08:44:00.450Z,30.47
2022-08-21T08:46:37.363Z,30.38
2022-08-21T08:49:12.468Z,29.65
2022-08-21T08:51:53.027Z,30.66
2022-08-21T08:54:27.932Z,29.61
2022-08-21T08:56:58.237Z,31.34
2022-08-21T08:59:29.633Z,30.41
2022-08-21T09:02:00.689Z,29.08
2022-08-21T09:04:30.714Z,29.50
2022-08-21T09:07:11.998Z,27.48
2022-08-21T09:09:54.692Z,28.90
2022-08-21T09:12:35.025Z,30.43
2022-08-21T09:15:14.332Z,27.95
2022-08-21T09:18:18.015Z,29.72
2022-08-21T09:20:58.635Z,27.10
2022-08-21T09:23:39.097Z,26.67
2022-08-21T09:26:14.010Z,26.70
2022-08-21T09:28:43.552Z,26.57
2022-08-21T09:31:23.222Z,26.16
2022-08-21T09:34:03.467Z,24.73
2022-08-21T09:36:39.394Z,23.71
2022-08-21T09:39:13.832Z,23.70
2022-08-21T09:41:42.549Z,24.66
2022-08-21T09:44:10.795Z,24.44
2022-08-21T09:46:52.650Z,24.93
2022-08-21T09:49:30.381Z,25.19
2022-08-21T09:52:00.534Z,24.55
2022-08-21T09:54:35.560Z,24.09
2022-08-21T09:57:34.355Z,23.05
2022-08-21T10:00:12.237Z,23.16
2022-08-21T10:02:40.367Z,23.18
2022-08-21T10:05:12.112Z,23.07
2022-08-21T10:07:42.403Z,22.48
2022-08-21T10:10:19.707Z,22.19
2022-08-21T10:12:57.510Z,21.69
2022-08-21T10:15:42.090Z,20.92
2022-08-21T10:20:37.717Z,23.96
2022-08-21T10:23:29.705Z,23.52
2022-08-21T10:26:13.572Z,24.98
2022-08-21T10:28:53.702Z,25.69
2022-08-21T10:31:30.536Z,23.16
2022-08-21T10:34:22.798Z,22.11
2022-08-21T10:37:10.753Z,22.81
2022-08-21T10:39:47.132Z,21.29
2022-08-21T10:42:28.632Z,21.67
2022-08-21T10:45:12.448Z,21.25
2022-08-21T10:47:48.967Z,21.33
2022-08-21T10:50:27.500Z,20.67
2022-08-21T10:53:08.258Z,19.77
2022-08-21T10:55:42.311Z,20.74
2022-08-21T10:58:13.458Z,19.82
2022-08-21T11:00:48.199Z,20.16
2022-08-21T11:03:33.735Z,20.89
2022-08-21T11:06:08.896Z,19.97
2022-08-21T11:08:43.100Z,21.04
2022-08-21T11:11:21.605Z,21.07
2022-08-21T11:13:55.072Z,21.22
2022-08-21T11:16:33.540Z,23.10
2022-08-21T11:19:07.984Z,23.20
2022-08-21T11:21:43.293Z,24.44
2022-08-21T11:24:32.550Z,22.40
2022-08-21T11:27:06.533Z,23.87
2022-08-21T11:29:38.641Z,23.67
2022-08-21T11:32:38.769Z,22.07
2022-08-21T11:35:15.990Z,21.66
2022-08-21T11:38:00.645Z,21.29
2022-08-21T11:40:46.661Z,21.58
2022-08-21T11:43:21.762Z,22.91
2022-08-21T11:45:53.126Z,23.00
2022-08-21T11:48:39.669Z,23.55
2022-08-21T11:51:12.540Z,22.55
2022-08-21T11:53:54.097Z,24.55
2022-08-21T11:56:27.680Z,25.42
2022-08-21T11:59:01.436Z,26.83
2022-08-21T12:01:35.081Z,27.36
2022-08-21T12:04:06.391Z,27.74
2022-08-21T12:06:36.806Z,27.72
2022-08-21T12:09:08.330Z,28.08
2022-08-21T12:11:51.044Z,27.16
2022-08-21T12:14:21.001Z,28.83
2022-08-21T12:16:51.187Z,28.43
2022-08-21T12:19:31.352Z,28.10
2022-08-21T12:22:10.057Z,28.08
2022-08-21T12:24:42.614Z,28.43
2022-08-21T12:27:28.261Z,28.24
2022-08-21T12:30:00.611Z,27.67
2022-08-21T12:32:43.690Z,29.14
2022-08-21T12:35:25.198Z,28.78
2022-08-21T12:38:02.273Z,28.84
2022-08-21T12:40:34.165Z,28.08
2022-08-21T12:43:07.254Z,27.54
2022-08-21T12:45:42.216Z,28.71
2022-08-21T12:48:16.325Z,29.61
2022-08-21T12:50:52.429Z,29.21
2022-08-21T12:53:29.101Z,28.79
2022-08-21T12:56:04.697Z,29.47
2022-08-21T12:58:34.087Z,30.74
2022-08-21T13:01:06.909Z,30.54
2022-08-21T13:03:37.205Z,29.95
2022-08-21T13:06:10.687Z,30.17
2022-08-21T13:08:45.509Z,30.77
2022-08-21T13:11:32.448Z,30.82
2022-08-21T13:14:05.329Z,31.90
2022-08-21T13:16:35.725Z,31.11
2022-08-21T13:19:09.520Z,30.94
2022-08-21T13:21:44.073Z,30.75
2022-08-21T13:24:41.369Z,30.38
2022-08-21T13:27:21.351Z,30.24
2022-08-21T13:30:02.090Z,30.32
2022-08-21T13:32:33.882Z,30.18
2022-08-21T13:35:10.968Z,29.90
2022-08-21T13:37:42.176Z,30.13
2022-08-21T13:40:15.866Z,29.24
2022-08-21T13:42:50.272Z,29.38
2022-08-21T13:45:26.613Z,29.55
2022-08-21T13:47:57.589Z,29.42
2022-08-21T13:50:27.917Z,29.13
2022-08-21T13:53:00.551Z,29.30
2022-08-21T13:55:40.924Z,29.76
2022-08-21T13:58:09.602Z,30.73
2022-08-21T14:00:50.739Z,31.11
2022-08-21T14:03:33.266Z,31.15
2022-08-21T14:06:02.246Z,31.16
2022-08-21T14:08:35.275Z,30.78
2022-08-21T14:11:06.349Z,31.42
2022-08-21T14:13:41.936Z,31.08
2022-08-21T14:16:19.219Z,31.85
2022-08-21T14:18:50.663Z,32.31
2022-08-21T14:21:30.898Z,32.18
2022-08-21T14:24:04.902Z,32.12
2022-08-21T14:26:34.617Z,32.90
2022-08-21T14:29:09.712Z,32.00
2022-08-21T14:31:43.390Z,32.49
2022-08-21T14:34:19.580Z,32.27
2022-08-21T14:36:49.539Z,32.76
2022-08-21T14:39:17.711Z,32.63
2022-08-21T14:41:49.568Z,31.97
2022-08-21T14:44:19.344Z,32.74
2022-08-21T14:46:55.403Z,32.18
2022-08-21T14:49:28.784Z,33.05
2022-08-21T14:51:59.092Z,32.64
2022-08-21T14:54:32.682Z,32.82
2022-08-21T14:57:05.386Z,32.97
2022-08-21T14:59:34.605Z,32.53
2022-08-21T15:02:05.491Z,32.14
2022-08-21T15:04:36.761Z,32.09
2022-08-21T15:07:05.587Z,32.19
2022-08-21T15:09:33.595Z,32.29
2022-08-21T15:12:05.962Z,32.85
2022-08-21T15:14:38.340Z,32.91
2022-08-21T15:17:09.116Z,33.16
2022-08-21T15:21:28.247Z,32.96
2022-08-21T15:23:56.375Z,32.33
2022-08-21T15:26:25.148Z,32.47
2022-08-21T15:28:53.589Z,32.41
2022-08-21T15:31:21.651Z,32.21
2022-08-21T15:33:49.853Z,31.72
2022-08-21T15:36:17.900Z,31.77
2022-08-21T15:38:50.269Z,31.40
2022-08-21T15:41:19.987Z,32.12
2022-08-21T15:43:50.535Z,33.17
2022-08-21T15:46:20.954Z,34.62
2022-08-21T15:48:49.129Z,32.93
2022-08-21T15:51:19.059Z,32.85
2022-08-21T15:53:50.962Z,32.79
2022-08-21T15:56:24.014Z,32.85
2022-08-21T15:59:01.343Z,33.12
2022-08-21T16:01:29.973Z,32.90
2022-08-21T16:04:13.789Z,32.96
2022-08-21T16:06:54.462Z,32.50
2022-08-21T16:09:28.403Z,32.98
2022-08-21T16:11:56.580Z,32.81
2022-08-21T16:14:24.632Z,32.81
2022-08-21T16:16:53.823Z,33.14
2022-08-21T16:19:22.658Z,33.86
2022-08-21T16:21:50.971Z,34.53
2022-08-21T16:24:19.000Z,33.77
2022-08-21T16:26:57.801Z,34.94
2022-08-21T16:29:30.842Z,34.77
2022-08-21T16:31:59.149Z,34.08
2022-08-21T16:34:28.510Z,34.49
2022-08-21T16:36:56.697Z,34.86
2022-08-21T16:39:24.814Z,34.61
2022-08-21T16:41:56.680Z,34.55
2022-08-21T16:44:24.981Z,34.61
2022-08-21T16:46:53.023Z,34.99
2022-08-21T16:49:21.205Z,34.43
2022-08-21T16:51:49.372Z,35.39
2022-08-21T16:54:17.451Z,35.06
2022-08-21T16:56:47.897Z,34.72
2022-08-21T16:59:18.004Z,34.81
2022-08-21T17:01:47.075Z,34.90
2022-08-21T17:04:15.083Z,35.11
2022-08-21T17:06:45.648Z,35.48
2022-08-21T17:09:14.268Z,35.02
2022-08-21T17:11:49.602Z,35.41
2022-08-21T17:14:24.958Z,35.24
2022-08-21T17:16:55.458Z,35.82
2022-08-21T17:19:24.379Z,36.23
2022-08-21T17:21:54.568Z,36.08
2022-08-21T17:24:22.894Z,36.11
2022-08-21T17:26:51.514Z,36.31
2022-08-21T17:29:25.598Z,36.15
2022-08-21T17:31:53.879Z,36.37
2022-08-21T17:34:26.220Z,36.51
2022-08-21T17:37:00.416Z,36.18
2022-08-21T17:39:30.693Z,36.91
2022-08-21T17:42:02.582Z,36.93
2022-08-21T17:44:32.307Z,37.34
2022-08-21T17:47:00.536Z,37.70
2022-08-21T17:49:28.652Z,37.68
2022-08-21T17:51:56.734Z,37.49
2022-08-21T17:54:26.873Z,37.34
2022-08-21T17:56:58.430Z,37.91
2022-08-21T17:59:26.968Z,37.97
2022-08-21T18:02:01.338Z,38.17
2022-08-21T18:04:32.504Z,38.34
2022-08-21T18:07:00.856Z,38.52
2022-08-21T18:09:28.962Z,38.50
2022-08-21T18:11:58.608Z,38.59
2022-08-21T18:14:29.838Z,38.75
2022-08-21T18:16:59.530Z,39.65
2022-08-21T18:19:27.929Z,39.90
2022-08-21T18:21:58.871Z,40.32
2022-08-21T18:24:29.806Z,40.95
2022-08-21T18:26:57.789Z,41.03
2022-08-21T18:29:25.956Z,42.17
2022-08-21T18:31:56.824Z,42.67
2022-08-21T18:34:29.052Z,44.11
2022-08-21T18:36:57.576Z,44.61
2022-08-21T18:39:36.426Z,44.52
2022-08-21T18:42:10.121Z,44.43
2022-08-21T18:44:38.842Z,44.68
2022-08-21T18:47:11.616Z,45.41
2022-08-21T18:49:41.750Z,45.99
2022-08-21T18:52:10.296Z,46.23
2022-08-21T18:54:46.280Z,45.87
2022-08-21T18:57:19.504Z,46.38
2022-08-21T18:59:51.623Z,46.74
2022-08-21T19:02:20.185Z,47.32
2022-08-21T19:04:54.224Z,47.43
2022-08-21T19:07:22.561Z,47.58
2022-08-21T19:10:24.385Z,48.21
2022-08-21T19:12:44.342Z,48.57
2022-08-21T19:15:15.856Z,48.83
2022-08-21T19:17:45.356Z,48.92
2022-08-21T19:20:25.504Z,49.42
2022-08-21T19:22:57.531Z,50.55
2022-08-21T19:25:33.948Z,50.57
2022-08-21T19:28:11.210Z,50.73
2022-08-21T19:30:41.906Z,50.46
2022-08-21T19:33:23.352Z,51.13
2022-08-21T19:35:53.542Z,51.27
2022-08-21T19:38:21.881Z,51.36
2022-08-21T19:40:50.776Z,51.80
2022-08-21T19:43:22.462Z,52.79
2022-08-21T19:45:56.274Z,53.72
2022-08-21T19:48:24.686Z,53.08
2022-08-21T19:50:54.300Z,53.42
2022-08-21T19:53:22.551Z,53.60
2022-08-21T19:55:50.855Z,53.98
2022-08-21T19:58:32.813Z,54.64
2022-08-21T20:01:00.976Z,54.96
2022-08-21T20:03:29.303Z,55.40
2022-08-21T20:05:58.723Z,55.51
2022-08-21T20:08:28.368Z,56.58
2022-08-21T20:10:58.008Z,56.53
2022-08-21T20:13:26.359Z,56.49
2022-08-21T20:15:54.936Z,56.54
2022-08-21T20:18:27.080Z,55.97
2022-08-21T20:22:27.978Z,55.66
2022-08-21T20:24:56.257Z,54.89
2022-08-21T20:27:26.259Z,52.30
2022-08-21T20:29:56.035Z,52.08
2022-08-21T20:32:24.290Z,51.82
2022-08-21T20:34:53.771Z,51.82
2022-08-21T20:40:15.710Z,52.87
2022-08-21T20:42:51.841Z,53.38
2022-08-21T20:45:22.942Z,54.19
2022-08-21T20:47:52.733Z,54.71
2022-08-21T20:50:26.836Z,55.95
2022-08-21T20:53:04.887Z,55.29
2022-08-21T20:55:36.426Z,55.93
2022-08-21T20:58:08.705Z,55.83
2022-08-21T21:00:44.145Z,55.94
2022-08-21T21:03:17.295Z,56.11
2022-08-21T21:05:54.798Z,56.05
2022-08-21T21:08:29.365Z,56.41
2022-08-21T21:11:01.090Z,56.86
2022-08-21T21:13:33.871Z,57.34
2022-08-21T21:16:05.939Z,57.84
2022-08-21T21:18:40.747Z,57.99
2022-08-21T21:21:14.584Z,58.62
2022-08-21T21:23:49.243Z,59.18
2022-08-21T21:26:21.911Z,58.55
2022-08-21T21:28:55.882Z,58.79
2022-08-21T21:31:27.434Z,59.05
2022-08-21T21:33:57.318Z,59.51
2022-08-21T21:36:35.376Z,60.08
2022-08-21T21:39:22.852Z,60.61
2022-08-21T21:41:59.604Z,60.23
2022-08-21T21:44:51.632Z,59.77
2022-08-21T21:47:30.426Z,59.86
2022-08-21T21:50:19.039Z,60.26
2022-08-21T21:53:03.311Z,60.75
2022-08-21T21:56:04.365Z,61.03
2022-08-21T21:58:49.212Z,60.30
2022-08-21T22:01:27.213Z,59.21
2022-08-21T22:04:03.743Z,57.71
2022-08-21T22:06:40.442Z,57.05
2022-08-21T22:09:16.626Z,56.11
2022-08-21T22:11:59.267Z,55.57
2022-08-21T22:14:35.463Z,55.19
2022-08-21T22:17:33.890Z,55.19
2022-08-21T22:20:07.587Z,53.96
2022-08-21T22:22:43.938Z,53.46
2022-08-21T22:25:19.020Z,53.56
2022-08-21T22:27:55.053Z,53.93
2022-08-21T22:30:41.685Z,53.59
2022-08-21T22:33:15.500Z,52.98
2022-08-21T22:35:51.718Z,53.37
2022-08-21T22:38:36.212Z,53.23
2022-08-21T22:41:17.457Z,52.79
2022-08-21T22:43:56.388Z,52.85
2022-08-21T22:46:30.269Z,52.43
2022-08-21T22:49:03.480Z,52.15
2022-08-21T22:51:33.403Z,51.94
2022-08-21T22:54:03.896Z,52.22
2022-08-21T22:56:49.486Z,52.45
2022-08-21T22:59:27.149Z,52.54
2022-08-21T23:02:01.603Z,52.21
2022-08-21T23:04:30.080Z,52.38
2022-08-21T23:07:00.309Z,52.20
2022-08-21T23:09:35.900Z,52.10
2022-08-21T23:12:33.977Z,51.96
2022-08-21T23:15:08.769Z,52.01
2022-08-21T23:17:49.641Z,52.06
2022-08-21T23:20:29.511Z,52.01
2022-08-21T23:23:08.912Z,51.85
2022-08-21T23:25:47.834Z,51.76
2022-08-21T23:28:27.183Z,52.10
2022-08-21T23:31:08.679Z,51.74
2022-08-21T23:34:00.916Z,51.39
2022-08-21T23:37:03.005Z,51.39
2022-08-21T23:39:50.232Z,51.72
2022-08-21T23:42:39.644Z,51.75
2022-08-21T23:45:24.401Z,52.02
2022-08-21T23:48:21.631Z,52.11
2022-08-21T23:51:24.644Z,52.13
2022-08-21T23:54:06.695Z,52.10
2022-08-21T23:56:49.938Z,52.15
2022-08-21T23:59:34.816Z,52.42
